Terminal Aerodrome Forecast
Issued by NWS Atlanta, GA

Home | Current Version | Previous Version | Text Only | Print | Product List | Glossary On
Versions: 1 2 3 4 5 6 7 8 9 10 11 12 13 14 15 16 17 18 19
000
FTUS42 KFFC 301400 AAA
TAFMCN
TAF AMD
KMCN 301411Z 3014/0112 03005KT P6SM SCT010
      TEMPO 3014/3016 BKN010
     FM301700 04005KT P6SM SCT040
     FM302200 VRB03KT P6SM FEW100
     FM010900 00000KT 3SM BR FEW250=

USA.gov is the U.S. government's official web portal to all federal, state and local government web resources and services.